sensor_id;sensor_type;location;lat;lon;timestamp;P1;durP1;ratioP1;P2;durP2;ratioP2
65863;SDS011;52639;51.180;20.460;2023-04-24T00:02:13;19.77;;;12.00;;
65863;SDS011;52639;51.180;20.460;2023-04-24T00:06:16;20.23;;;12.43;;
65863;SDS011;52639;51.180;20.460;2023-04-24T00:10:20;21.70;;;12.43;;
65863;SDS011;52639;51.180;20.460;2023-04-24T00:14:23;23.15;;;14.48;;
65863;SDS011;52639;51.180;20.460;2023-04-24T00:18:27;26.08;;;15.98;;
65863;SDS011;52639;51.180;20.460;2023-04-24T00:22:31;22.85;;;13.93;;
65863;SDS011;52639;51.180;20.460;2023-04-24T00:26:34;22.35;;;13.55;;
65863;SDS011;52639;51.180;20.460;2023-04-24T00:30:37;27.83;;;13.13;;
65863;SDS011;52639;51.180;20.460;2023-04-24T00:34:42;22.25;;;12.45;;
65863;SDS011;52639;51.180;20.460;2023-04-24T00:38:45;17.17;;;11.52;;
65863;SDS011;52639;51.180;20.460;2023-04-24T00:42:48;18.90;;;11.13;;
65863;SDS011;52639;51.180;20.460;2023-04-24T00:46:51;18.05;;;11.45;;
65863;SDS011;52639;51.180;20.460;2023-04-24T00:50:58;18.30;;;11.77;;
65863;SDS011;52639;51.180;20.460;2023-04-24T00:55:01;20.30;;;11.18;;
65863;SDS011;52639;51.180;20.460;2023-04-24T00:59:04;19.15;;;11.13;;
65863;SDS011;52639;51.180;20.460;2023-04-24T01:03:07;18.60;;;11.20;;
65863;SDS011;52639;51.180;20.460;2023-04-24T01:07:15;18.75;;;11.48;;
65863;SDS011;52639;51.180;20.460;2023-04-24T01:11:19;17.73;;;10.50;;
65863;SDS011;52639;51.180;20.460;2023-04-24T01:15:23;20.13;;;11.10;;
65863;SDS011;52639;51.180;20.460;2023-04-24T01:19:27;16.73;;;11.00;;
65863;SDS011;52639;51.180;20.460;2023-04-24T01:23:31;20.83;;;11.35;;
65863;SDS011;52639;51.180;20.460;2023-04-24T01:27:34;19.83;;;10.70;;
65863;SDS011;52639;51.180;20.460;2023-04-24T01:31:38;17.50;;;10.32;;
65863;SDS011;52639;51.180;20.460;2023-04-24T01:35:41;19.98;;;10.57;;
65863;SDS011;52639;51.180;20.460;2023-04-24T01:39:46;20.27;;;11.48;;
65863;SDS011;52639;51.180;20.460;2023-04-24T01:43:49;16.10;;;9.90;;
65863;SDS011;52639;51.180;20.460;2023-04-24T01:47:52;20.17;;;10.05;;
65863;SDS011;52639;51.180;20.460;2023-04-24T01:51:55;19.13;;;9.57;;
65863;SDS011;52639;51.180;20.460;2023-04-24T01:56:00;17.90;;;10.90;;
65863;SDS011;52639;51.180;20.460;2023-04-24T02:00:04;18.38;;;10.73;;
65863;SDS011;52639;51.180;20.460;2023-04-24T02:04:08;19.00;;;10.18;;
65863;SDS011;52639;51.180;20.460;2023-04-24T02:08:10;14.13;;;9.73;;
65863;SDS011;52639;51.180;20.460;2023-04-24T02:12:15;16.02;;;9.30;;
65863;SDS011;52639;51.180;20.460;2023-04-24T02:16:19;22.63;;;11.55;;
65863;SDS011;52639;51.180;20.460;2023-04-24T02:20:22;20.10;;;11.38;;
65863;SDS011;52639;51.180;20.460;2023-04-24T02:24:25;18.33;;;10.95;;
65863;SDS011;52639;51.180;20.460;2023-04-24T02:28:30;17.85;;;10.82;;
65863;SDS011;52639;51.180;20.460;2023-04-24T02:32:33;20.75;;;12.35;;
65863;SDS011;52639;51.180;20.460;2023-04-24T02:36:36;17.92;;;11.07;;
65863;SDS011;52639;51.180;20.460;2023-04-24T02:40:39;20.83;;;11.25;;
65863;SDS011;52639;51.180;20.460;2023-04-24T02:44:44;22.02;;;12.45;;
65863;SDS011;52639;51.180;20.460;2023-04-24T02:48:47;24.00;;;14.35;;
65863;SDS011;52639;51.180;20.460;2023-04-24T02:52:50;29.75;;;15.98;;
65863;SDS011;52639;51.180;20.460;2023-04-24T02:56:53;25.85;;;15.18;;
65863;SDS011;52639;51.180;20.460;2023-04-24T03:00:57;20.67;;;12.55;;
65863;SDS011;52639;51.180;20.460;2023-04-24T03:05:01;18.98;;;10.80;;
65863;SDS011;52639;51.180;20.460;2023-04-24T03:09:05;20.30;;;11.40;;
65863;SDS011;52639;51.180;20.460;2023-04-24T03:13:08;19.77;;;11.40;;
65863;SDS011;52639;51.180;20.460;2023-04-24T03:17:13;18.00;;;10.65;;
65863;SDS011;52639;51.180;20.460;2023-04-24T03:21:16;21.98;;;11.55;;
65863;SDS011;52639;51.180;20.460;2023-04-24T03:25:19;16.05;;;10.00;;
65863;SDS011;52639;51.180;20.460;2023-04-24T03:29:22;16.75;;;11.23;;
65863;SDS011;52639;51.180;20.460;2023-04-24T03:33:26;18.35;;;10.88;;
65863;SDS011;52639;51.180;20.460;2023-04-24T03:37:30;17.77;;;11.30;;
65863;SDS011;52639;51.180;20.460;2023-04-24T03:41:33;17.98;;;11.20;;
65863;SDS011;52639;51.180;20.460;2023-04-24T03:45:35;27.80;;;15.35;;
65863;SDS011;52639;51.180;20.460;2023-04-24T03:49:40;30.17;;;15.32;;
65863;SDS011;52639;51.180;20.460;2023-04-24T03:53:43;36.78;;;16.00;;
65863;SDS011;52639;51.180;20.460;2023-04-24T03:57:46;50.63;;;25.40;;
65863;SDS011;52639;51.180;20.460;2023-04-24T04:01:51;36.45;;;18.00;;
65863;SDS011;52639;51.180;20.460;2023-04-24T04:05:56;18.25;;;10.68;;
65863;SDS011;52639;51.180;20.460;2023-04-24T04:10:01;16.30;;;10.40;;
65863;SDS011;52639;51.180;20.460;2023-04-24T04:14:05;19.98;;;10.13;;
65863;SDS011;52639;51.180;20.460;2023-04-24T04:18:08;18.10;;;10.00;;
65863;SDS011;52639;51.180;20.460;2023-04-24T04:22:13;19.38;;;9.75;;
65863;SDS011;52639;51.180;20.460;2023-04-24T04:26:17;19.27;;;10.30;;
65863;SDS011;52639;51.180;20.460;2023-04-24T04:30:22;15.35;;;10.73;;
65863;SDS011;52639;51.180;20.460;2023-04-24T04:43:04;18.88;;;11.40;;
65863;SDS011;52639;51.180;20.460;2023-04-24T04:47:08;17.67;;;11.95;;
65863;SDS011;52639;51.180;20.460;2023-04-24T04:51:17;23.90;;;14.15;;
65863;SDS011;52639;51.180;20.460;2023-04-24T04:55:24;16.63;;;10.52;;
65863;SDS011;52639;51.180;20.460;2023-04-24T04:59:27;15.85;;;8.98;;
65863;SDS011;52639;51.180;20.460;2023-04-24T05:03:35;15.77;;;9.82;;
65863;SDS011;52639;51.180;20.460;2023-04-24T05:07:44;14.20;;;9.38;;
65863;SDS011;52639;51.180;20.460;2023-04-24T05:11:52;14.70;;;9.73;;
65863;SDS011;52639;51.180;20.460;2023-04-24T05:16:00;16.05;;;12.07;;
65863;SDS011;52639;51.180;20.460;2023-04-24T05:20:13;11.50;;;8.02;;
65863;SDS011;52639;51.180;20.460;2023-04-24T05:24:16;13.05;;;8.90;;
65863;SDS011;52639;51.180;20.460;2023-04-24T05:28:21;22.05;;;16.10;;
65863;SDS011;52639;51.180;20.460;2023-04-24T05:32:24;21.08;;;15.15;;
65863;SDS011;52639;51.180;20.460;2023-04-24T05:36:30;13.65;;;9.95;;
65863;SDS011;52639;51.180;20.460;2023-04-24T05:40:38;23.75;;;20.55;;
65863;SDS011;52639;51.180;20.460;2023-04-24T05:44:43;14.20;;;10.45;;
65863;SDS011;52639;51.180;20.460;2023-04-24T05:48:45;14.02;;;9.35;;
65863;SDS011;52639;51.180;20.460;2023-04-24T05:52:48;12.60;;;7.63;;
65863;SDS011;52639;51.180;20.460;2023-04-24T05:56:52;21.13;;;16.70;;
65863;SDS011;52639;51.180;20.460;2023-04-24T06:00:59;11.88;;;7.85;;
65863;SDS011;52639;51.180;20.460;2023-04-24T06:05:03;10.20;;;6.95;;
65863;SDS011;52639;51.180;20.460;2023-04-24T06:09:06;19.52;;;13.93;;
65863;SDS011;52639;51.180;20.460;2023-04-24T06:13:09;10.10;;;6.75;;
65863;SDS011;52639;51.180;20.460;2023-04-24T06:17:21;13.80;;;9.57;;
65863;SDS011;52639;51.180;20.460;2023-04-24T06:21:31;9.88;;;6.57;;
65863;SDS011;52639;51.180;20.460;2023-04-24T06:25:38;9.57;;;6.38;;
65863;SDS011;52639;51.180;20.460;2023-04-24T06:29:41;9.48;;;5.28;;
65863;SDS011;52639;51.180;20.460;2023-04-24T06:33:47;13.48;;;7.57;;
65863;SDS011;52639;51.180;20.460;2023-04-24T06:37:55;17.35;;;15.73;;
65863;SDS011;52639;51.180;20.460;2023-04-24T06:42:03;13.05;;;8.32;;
65863;SDS011;52639;51.180;20.460;2023-04-24T06:46:13;11.43;;;6.68;;
65863;SDS011;52639;51.180;20.460;2023-04-24T06:50:17;12.73;;;6.05;;
65863;SDS011;52639;51.180;20.460;2023-04-24T06:54:20;11.35;;;7.07;;
65863;SDS011;52639;51.180;20.460;2023-04-24T06:58:24;11.60;;;4.90;;
65863;SDS011;52639;51.180;20.460;2023-04-24T07:02:41;8.35;;;4.90;;
65863;SDS011;52639;51.180;20.460;2023-04-24T07:06:48;11.80;;;5.13;;
65863;SDS011;52639;51.180;20.460;2023-04-24T07:10:53;9.15;;;6.82;;
65863;SDS011;52639;51.180;20.460;2023-04-24T07:14:57;7.10;;;4.45;;
65863;SDS011;52639;51.180;20.460;2023-04-24T07:19:00;6.10;;;4.10;;
65863;SDS011;52639;51.180;20.460;2023-04-24T07:23:04;8.23;;;4.55;;
65863;SDS011;52639;51.180;20.460;2023-04-24T07:27:07;7.90;;;3.80;;
65863;SDS011;52639;51.180;20.460;2023-04-24T07:31:10;7.47;;;4.35;;
65863;SDS011;52639;51.180;20.460;2023-04-24T07:35:13;6.55;;;4.00;;
65863;SDS011;52639;51.180;20.460;2023-04-24T07:39:18;10.35;;;4.65;;
65863;SDS011;52639;51.180;20.460;2023-04-24T07:43:21;7.47;;;4.07;;
65863;SDS011;52639;51.180;20.460;2023-04-24T07:47:24;5.40;;;3.63;;
65863;SDS011;52639;51.180;20.460;2023-04-24T07:51:27;7.07;;;4.15;;
65863;SDS011;52639;51.180;20.460;2023-04-24T07:55:32;6.10;;;4.13;;
65863;SDS011;52639;51.180;20.460;2023-04-24T07:59:35;6.50;;;3.97;;
65863;SDS011;52639;51.180;20.460;2023-04-24T08:03:38;7.03;;;4.07;;
65863;SDS011;52639;51.180;20.460;2023-04-24T08:07:41;7.13;;;4.28;;
65863;SDS011;52639;51.180;20.460;2023-04-24T08:11:48;8.75;;;3.60;;
65863;SDS011;52639;51.180;20.460;2023-04-24T08:15:51;5.18;;;3.70;;
65863;SDS011;52639;51.180;20.460;2023-04-24T08:19:54;6.68;;;3.75;;
65863;SDS011;52639;51.180;20.460;2023-04-24T08:24:02;4.97;;;3.67;;
65863;SDS011;52639;51.180;20.460;2023-04-24T08:28:10;5.05;;;3.78;;
65863;SDS011;52639;51.180;20.460;2023-04-24T08:32:13;5.97;;;3.50;;
65863;SDS011;52639;51.180;20.460;2023-04-24T08:36:16;7.35;;;4.22;;
65863;SDS011;52639;51.180;20.460;2023-04-24T08:40:19;4.72;;;3.60;;
65863;SDS011;52639;51.180;20.460;2023-04-24T08:44:26;5.13;;;3.67;;
65863;SDS011;52639;51.180;20.460;2023-04-24T08:48:29;7.30;;;3.60;;
65863;SDS011;52639;51.180;20.460;2023-04-24T08:52:32;6.05;;;3.88;;
65863;SDS011;52639;51.180;20.460;2023-04-24T08:56:36;10.13;;;5.20;;
65863;SDS011;52639;51.180;20.460;2023-04-24T09:00:42;7.55;;;3.53;;
65863;SDS011;52639;51.180;20.460;2023-04-24T09:04:47;6.57;;;3.70;;
65863;SDS011;52639;51.180;20.460;2023-04-24T09:08:55;7.32;;;4.00;;
65863;SDS011;52639;51.180;20.460;2023-04-24T09:12:58;19.15;;;14.50;;
65863;SDS011;52639;51.180;20.460;2023-04-24T09:17:04;5.88;;;4.30;;
65863;SDS011;52639;51.180;20.460;2023-04-24T09:21:08;5.20;;;3.58;;
65863;SDS011;52639;51.180;20.460;2023-04-24T09:25:12;14.35;;;7.03;;
65863;SDS011;52639;51.180;20.460;2023-04-24T09:29:15;5.15;;;3.50;;
65863;SDS011;52639;51.180;20.460;2023-04-24T09:33:20;9.88;;;3.80;;
65863;SDS011;52639;51.180;20.460;2023-04-24T09:37:29;4.97;;;3.72;;
65863;SDS011;52639;51.180;20.460;2023-04-24T09:41:32;8.32;;;3.40;;
65863;SDS011;52639;51.180;20.460;2023-04-24T09:45:36;6.68;;;4.15;;
65863;SDS011;52639;51.180;20.460;2023-04-24T09:49:41;11.73;;;3.97;;
65863;SDS011;52639;51.180;20.460;2023-04-24T09:53:45;7.22;;;4.18;;
65863;SDS011;52639;51.180;20.460;2023-04-24T09:57:49;8.45;;;4.40;;
65863;SDS011;52639;51.180;20.460;2023-04-24T10:01:53;9.25;;;4.07;;
65863;SDS011;52639;51.180;20.460;2023-04-24T10:06:00;7.88;;;4.45;;
65863;SDS011;52639;51.180;20.460;2023-04-24T10:10:03;5.32;;;3.22;;
65863;SDS011;52639;51.180;20.460;2023-04-24T10:14:08;5.43;;;3.78;;
65863;SDS011;52639;51.180;20.460;2023-04-24T10:18:13;5.03;;;3.75;;
65863;SDS011;52639;51.180;20.460;2023-04-24T10:22:19;5.10;;;3.40;;
65863;SDS011;52639;51.180;20.460;2023-04-24T10:26:23;8.88;;;3.00;;
65863;SDS011;52639;51.180;20.460;2023-04-24T10:30:27;9.80;;;3.38;;
65863;SDS011;52639;51.180;20.460;2023-04-24T10:34:31;5.55;;;3.60;;
65863;SDS011;52639;51.180;20.460;2023-04-24T10:38:36;7.57;;;3.67;;
65863;SDS011;52639;51.180;20.460;2023-04-24T10:42:41;4.95;;;3.53;;
65863;SDS011;52639;51.180;20.460;2023-04-24T10:46:44;6.00;;;3.53;;
65863;SDS011;52639;51.180;20.460;2023-04-24T10:50:51;6.75;;;3.40;;
65863;SDS011;52639;51.180;20.460;2023-04-24T10:54:56;5.05;;;3.20;;
65863;SDS011;52639;51.180;20.460;2023-04-24T10:59:04;19.38;;;7.43;;
65863;SDS011;52639;51.180;20.460;2023-04-24T11:03:26;30.88;;;10.98;;
65863;SDS011;52639;51.180;20.460;2023-04-24T11:07:30;7.35;;;3.80;;
65863;SDS011;52639;51.180;20.460;2023-04-24T11:12:13;21.83;;;12.60;;
65863;SDS011;52639;51.180;20.460;2023-04-24T11:16:20;6.28;;;3.72;;
65863;SDS011;52639;51.180;20.460;2023-04-24T11:20:23;10.60;;;5.15;;
65863;SDS011;52639;51.180;20.460;2023-04-24T11:24:30;11.02;;;4.25;;
65863;SDS011;52639;51.180;20.460;2023-04-24T11:28:36;9.52;;;5.82;;
65863;SDS011;52639;51.180;20.460;2023-04-24T11:32:39;6.95;;;3.13;;
65863;SDS011;52639;51.180;20.460;2023-04-24T11:36:43;7.25;;;3.78;;
65863;SDS011;52639;51.180;20.460;2023-04-24T11:40:47;7.28;;;3.45;;
65863;SDS011;52639;51.180;20.460;2023-04-24T11:44:53;5.20;;;3.00;;
65863;SDS011;52639;51.180;20.460;2023-04-24T11:48:58;15.00;;;6.32;;
65863;SDS011;52639;51.180;20.460;2023-04-24T11:53:01;7.50;;;4.45;;
65863;SDS011;52639;51.180;20.460;2023-04-24T11:57:07;4.93;;;3.78;;
65863;SDS011;52639;51.180;20.460;2023-04-24T12:01:11;15.88;;;8.02;;
65863;SDS011;52639;51.180;20.460;2023-04-24T12:05:18;23.58;;;6.95;;
65863;SDS011;52639;51.180;20.460;2023-04-24T12:09:22;16.65;;;7.53;;
65863;SDS011;52639;51.180;20.460;2023-04-24T12:13:26;10.63;;;4.97;;
65863;SDS011;52639;51.180;20.460;2023-04-24T12:17:31;8.10;;;4.40;;
65863;SDS011;52639;51.180;20.460;2023-04-24T12:21:36;5.38;;;3.65;;
65863;SDS011;52639;51.180;20.460;2023-04-24T12:25:39;10.50;;;4.30;;
65863;SDS011;52639;51.180;20.460;2023-04-24T12:29:51;9.10;;;4.70;;
65863;SDS011;52639;51.180;20.460;2023-04-24T12:33:57;6.80;;;3.63;;
65863;SDS011;52639;51.180;20.460;2023-04-24T12:38:05;9.38;;;4.72;;
65863;SDS011;52639;51.180;20.460;2023-04-24T12:42:09;7.50;;;4.22;;
65863;SDS011;52639;51.180;20.460;2023-04-24T12:46:12;8.55;;;3.30;;
65863;SDS011;52639;51.180;20.460;2023-04-24T12:50:17;8.45;;;3.95;;
65863;SDS011;52639;51.180;20.460;2023-04-24T12:54:20;17.15;;;6.15;;
65863;SDS011;52639;51.180;20.460;2023-04-24T12:58:23;11.02;;;4.15;;
65863;SDS011;52639;51.180;20.460;2023-04-24T13:02:27;6.93;;;3.40;;
65863;SDS011;52639;51.180;20.460;2023-04-24T13:06:34;6.40;;;3.50;;
65863;SDS011;52639;51.180;20.460;2023-04-24T13:10:38;8.30;;;3.38;;
65863;SDS011;52639;51.180;20.460;2023-04-24T13:14:42;7.30;;;3.72;;
65863;SDS011;52639;51.180;20.460;2023-04-24T13:18:45;6.03;;;3.45;;
65863;SDS011;52639;51.180;20.460;2023-04-24T13:22:51;34.83;;;13.07;;
65863;SDS011;52639;51.180;20.460;2023-04-24T13:26:55;8.73;;;4.10;;
65863;SDS011;52639;51.180;20.460;2023-04-24T13:30:58;10.10;;;3.83;;
65863;SDS011;52639;51.180;20.460;2023-04-24T13:35:01;27.83;;;10.02;;
65863;SDS011;52639;51.180;20.460;2023-04-24T13:39:06;7.82;;;3.10;;
65863;SDS011;52639;51.180;20.460;2023-04-24T13:43:09;8.20;;;5.00;;
65863;SDS011;52639;51.180;20.460;2023-04-24T13:47:12;14.13;;;5.97;;
65863;SDS011;52639;51.180;20.460;2023-04-24T13:51:17;5.65;;;3.28;;
65863;SDS011;52639;51.180;20.460;2023-04-24T13:55:24;5.28;;;3.17;;
65863;SDS011;52639;51.180;20.460;2023-04-24T13:59:27;6.95;;;4.50;;
65863;SDS011;52639;51.180;20.460;2023-04-24T14:03:50;11.35;;;9.38;;
65863;SDS011;52639;51.180;20.460;2023-04-24T14:07:53;9.30;;;5.18;;
65863;SDS011;52639;51.180;20.460;2023-04-24T14:11:58;6.05;;;3.45;;
65863;SDS011;52639;51.180;20.460;2023-04-24T14:16:02;7.47;;;3.20;;
65863;SDS011;52639;51.180;20.460;2023-04-24T14:20:06;6.20;;;3.55;;
65863;SDS011;52639;51.180;20.460;2023-04-24T14:24:11;6.25;;;3.45;;
65863;SDS011;52639;51.180;20.460;2023-04-24T14:28:15;6.45;;;3.72;;
65863;SDS011;52639;51.180;20.460;2023-04-24T14:32:19;8.10;;;3.83;;
65863;SDS011;52639;51.180;20.460;2023-04-24T14:36:23;5.15;;;3.55;;
65863;SDS011;52639;51.180;20.460;2023-04-24T14:40:27;5.47;;;3.70;;
65863;SDS011;52639;51.180;20.460;2023-04-24T14:44:31;11.80;;;4.70;;
65863;SDS011;52639;51.180;20.460;2023-04-24T14:48:34;5.55;;;3.50;;
65863;SDS011;52639;51.180;20.460;2023-04-24T14:52:37;7.75;;;4.13;;
65863;SDS011;52639;51.180;20.460;2023-04-24T14:56:41;5.45;;;3.63;;
65863;SDS011;52639;51.180;20.460;2023-04-24T15:00:46;5.57;;;3.90;;
65863;SDS011;52639;51.180;20.460;2023-04-24T15:04:53;11.68;;;6.35;;
65863;SDS011;52639;51.180;20.460;2023-04-24T15:08:57;6.28;;;3.53;;
65863;SDS011;52639;51.180;20.460;2023-04-24T15:13:00;7.47;;;4.20;;
65863;SDS011;52639;51.180;20.460;2023-04-24T15:17:04;5.70;;;3.55;;
65863;SDS011;52639;51.180;20.460;2023-04-24T15:21:08;6.32;;;3.67;;
65863;SDS011;52639;51.180;20.460;2023-04-24T15:25:14;6.97;;;3.72;;
65863;SDS011;52639;51.180;20.460;2023-04-24T15:29:17;8.18;;;3.80;;
65863;SDS011;52639;51.180;20.460;2023-04-24T15:33:22;4.75;;;3.65;;
65863;SDS011;52639;51.180;20.460;2023-04-24T15:37:27;4.95;;;3.70;;
65863;SDS011;52639;51.180;20.460;2023-04-24T15:41:31;6.57;;;3.72;;
65863;SDS011;52639;51.180;20.460;2023-04-24T15:45:36;7.00;;;4.15;;
65863;SDS011;52639;51.180;20.460;2023-04-24T15:49:50;6.22;;;4.35;;
65863;SDS011;52639;51.180;20.460;2023-04-24T15:53:57;5.82;;;4.15;;
65863;SDS011;52639;51.180;20.460;2023-04-24T15:58:00;7.20;;;4.75;;
65863;SDS011;52639;51.180;20.460;2023-04-24T16:02:04;6.88;;;4.38;;
65863;SDS011;52639;51.180;20.460;2023-04-24T16:06:10;7.85;;;4.30;;
65863;SDS011;52639;51.180;20.460;2023-04-24T16:10:16;7.00;;;4.60;;
65863;SDS011;52639;51.180;20.460;2023-04-24T16:14:23;6.22;;;4.45;;
65863;SDS011;52639;51.180;20.460;2023-04-24T16:18:40;7.32;;;3.80;;
65863;SDS011;52639;51.180;20.460;2023-04-24T16:22:47;6.90;;;4.32;;
65863;SDS011;52639;51.180;20.460;2023-04-24T16:27:10;7.40;;;4.85;;
65863;SDS011;52639;51.180;20.460;2023-04-24T16:31:19;11.77;;;5.20;;
65863;SDS011;52639;51.180;20.460;2023-04-24T16:35:25;12.65;;;5.22;;
65863;SDS011;52639;51.180;20.460;2023-04-24T16:39:35;7.25;;;4.60;;
65863;SDS011;52639;51.180;20.460;2023-04-24T16:43:39;6.40;;;4.72;;
65863;SDS011;52639;51.180;20.460;2023-04-24T16:47:47;9.60;;;5.50;;
65863;SDS011;52639;51.180;20.460;2023-04-24T16:52:14;10.32;;;5.40;;
65863;SDS011;52639;51.180;20.460;2023-04-24T16:56:22;10.30;;;5.75;;
65863;SDS011;52639;51.180;20.460;2023-04-24T17:00:32;9.15;;;5.45;;
65863;SDS011;52639;51.180;20.460;2023-04-24T17:04:56;7.78;;;5.28;;
65863;SDS011;52639;51.180;20.460;2023-04-24T17:09:12;8.32;;;5.28;;
65863;SDS011;52639;51.180;20.460;2023-04-24T17:13:23;19.23;;;13.52;;
65863;SDS011;52639;51.180;20.460;2023-04-24T17:17:48;9.25;;;5.57;;
65863;SDS011;52639;51.180;20.460;2023-04-24T17:22:09;8.68;;;5.13;;
65863;SDS011;52639;51.180;20.460;2023-04-24T17:26:29;10.00;;;6.57;;
65863;SDS011;52639;51.180;20.460;2023-04-24T17:30:39;12.50;;;7.10;;
65863;SDS011;52639;51.180;20.460;2023-04-24T17:34:47;13.07;;;7.75;;
65863;SDS011;52639;51.180;20.460;2023-04-24T17:38:54;11.40;;;6.82;;
65863;SDS011;52639;51.180;20.460;2023-04-24T17:43:21;10.30;;;6.68;;
65863;SDS011;52639;51.180;20.460;2023-04-24T17:47:33;12.20;;;7.18;;
65863;SDS011;52639;51.180;20.460;2023-04-24T17:51:37;11.65;;;7.97;;
65863;SDS011;52639;51.180;20.460;2023-04-24T17:55:43;13.60;;;8.27;;
65863;SDS011;52639;51.180;20.460;2023-04-24T17:59:49;17.45;;;12.75;;
65863;SDS011;52639;51.180;20.460;2023-04-24T18:04:04;9.82;;;6.75;;
65863;SDS011;52639;51.180;20.460;2023-04-24T18:08:10;11.63;;;7.57;;
65863;SDS011;52639;51.180;20.460;2023-04-24T18:12:24;14.55;;;9.48;;
65863;SDS011;52639;51.180;20.460;2023-04-24T18:16:35;12.80;;;7.32;;
65863;SDS011;52639;51.180;20.460;2023-04-24T18:20:43;14.10;;;9.20;;
65863;SDS011;52639;51.180;20.460;2023-04-24T18:24:51;20.30;;;9.07;;
65863;SDS011;52639;51.180;20.460;2023-04-24T18:28:59;10.10;;;6.88;;
65863;SDS011;52639;51.180;20.460;2023-04-24T18:37:23;44.28;;;23.40;;
65863;SDS011;52639;51.180;20.460;2023-04-24T18:41:33;13.52;;;9.30;;
65863;SDS011;52639;51.180;20.460;2023-04-24T18:45:42;11.98;;;7.53;;
65863;SDS011;52639;51.180;20.460;2023-04-24T18:49:58;12.45;;;7.75;;
65863;SDS011;52639;51.180;20.460;2023-04-24T18:58:28;26.33;;;16.65;;
65863;SDS011;52639;51.180;20.460;2023-04-24T19:02:38;29.08;;;16.65;;
65863;SDS011;52639;51.180;20.460;2023-04-24T19:06:57;36.50;;;17.38;;
65863;SDS011;52639;51.180;20.460;2023-04-24T19:11:04;30.45;;;16.17;;
65863;SDS011;52639;51.180;20.460;2023-04-24T19:15:08;20.23;;;11.50;;
65863;SDS011;52639;51.180;20.460;2023-04-24T19:19:12;15.82;;;9.90;;
65863;SDS011;52639;51.180;20.460;2023-04-24T19:23:24;17.50;;;11.02;;
65863;SDS011;52639;51.180;20.460;2023-04-24T19:27:38;21.35;;;10.82;;
65863;SDS011;52639;51.180;20.460;2023-04-24T19:31:52;13.32;;;8.32;;
65863;SDS011;52639;51.180;20.460;2023-04-24T19:35:58;12.10;;;7.10;;
65863;SDS011;52639;51.180;20.460;2023-04-24T19:40:33;12.90;;;7.20;;
65863;SDS011;52639;51.180;20.460;2023-04-24T19:45:09;24.85;;;14.52;;
65863;SDS011;52639;51.180;20.460;2023-04-24T19:49:34;14.38;;;8.40;;
65863;SDS011;52639;51.180;20.460;2023-04-24T19:53:41;22.73;;;10.93;;
65863;SDS011;52639;51.180;20.460;2023-04-24T19:57:46;16.85;;;10.25;;
65863;SDS011;52639;51.180;20.460;2023-04-24T20:02:00;13.05;;;8.45;;
65863;SDS011;52639;51.180;20.460;2023-04-24T20:06:15;26.25;;;12.73;;
65863;SDS011;52639;51.180;20.460;2023-04-24T20:10:30;25.55;;;13.70;;
65863;SDS011;52639;51.180;20.460;2023-04-24T20:14:43;16.08;;;9.07;;
65863;SDS011;52639;51.180;20.460;2023-04-24T20:18:51;24.55;;;11.93;;
65863;SDS011;52639;51.180;20.460;2023-04-24T20:22:57;11.25;;;7.03;;
65863;SDS011;52639;51.180;20.460;2023-04-24T20:27:04;16.30;;;8.95;;
65863;SDS011;52639;51.180;20.460;2023-04-24T20:31:18;17.13;;;8.50;;
65863;SDS011;52639;51.180;20.460;2023-04-24T20:35:43;13.77;;;8.87;;
65863;SDS011;52639;51.180;20.460;2023-04-24T20:39:51;16.65;;;10.43;;
65863;SDS011;52639;51.180;20.460;2023-04-24T20:43:56;16.42;;;10.25;;
65863;SDS011;52639;51.180;20.460;2023-04-24T20:48:00;16.67;;;10.40;;
65863;SDS011;52639;51.180;20.460;2023-04-24T20:56:58;106.50;;;34.75;;
65863;SDS011;52639;51.180;20.460;2023-04-24T21:01:59;71.00;;;28.13;;
65863;SDS011;52639;51.180;20.460;2023-04-24T21:06:02;19.77;;;10.27;;
65863;SDS011;52639;51.180;20.460;2023-04-24T21:10:13;13.32;;;8.52;;
65863;SDS011;52639;51.180;20.460;2023-04-24T21:14:18;13.77;;;8.85;;
65863;SDS011;52639;51.180;20.460;2023-04-24T21:18:22;14.48;;;9.50;;
65863;SDS011;52639;51.180;20.460;2023-04-24T21:22:27;14.60;;;9.25;;
65863;SDS011;52639;51.180;20.460;2023-04-24T21:26:30;16.02;;;9.75;;
65863;SDS011;52639;51.180;20.460;2023-04-24T21:30:35;29.10;;;17.88;;
65863;SDS011;52639;51.180;20.460;2023-04-24T21:34:42;26.05;;;14.00;;
65863;SDS011;52639;51.180;20.460;2023-04-24T21:38:47;40.38;;;16.40;;
65863;SDS011;52639;51.180;20.460;2023-04-24T21:42:51;41.67;;;16.30;;
65863;SDS011;52639;51.180;20.460;2023-04-24T21:46:56;29.67;;;15.23;;
65863;SDS011;52639;51.180;20.460;2023-04-24T21:51:03;23.10;;;11.85;;
65863;SDS011;52639;51.180;20.460;2023-04-24T21:55:08;21.88;;;12.15;;
65863;SDS011;52639;51.180;20.460;2023-04-24T21:59:11;25.25;;;12.98;;
65863;SDS011;52639;51.180;20.460;2023-04-24T22:03:17;23.80;;;13.02;;
65863;SDS011;52639;51.180;20.460;2023-04-24T22:07:22;24.67;;;13.38;;
65863;SDS011;52639;51.180;20.460;2023-04-24T22:11:26;29.40;;;17.42;;
65863;SDS011;52639;51.180;20.460;2023-04-24T22:15:30;22.30;;;15.00;;
65863;SDS011;52639;51.180;20.460;2023-04-24T22:19:37;24.17;;;16.90;;
65863;SDS011;52639;51.180;20.460;2023-04-24T22:23:44;16.00;;;10.80;;
65863;SDS011;52639;51.180;20.460;2023-04-24T22:27:50;17.48;;;10.93;;
65863;SDS011;52639;51.180;20.460;2023-04-24T22:31:54;15.35;;;10.98;;
65863;SDS011;52639;51.180;20.460;2023-04-24T22:35:59;15.70;;;10.20;;
65863;SDS011;52639;51.180;20.460;2023-04-24T22:40:02;17.70;;;11.43;;
65863;SDS011;52639;51.180;20.460;2023-04-24T22:44:09;22.42;;;12.80;;
65863;SDS011;52639;51.180;20.460;2023-04-24T22:48:14;17.55;;;10.77;;
65863;SDS011;52639;51.180;20.460;2023-04-24T22:52:20;17.35;;;10.75;;
65863;SDS011;52639;51.180;20.460;2023-04-24T22:56:24;16.70;;;11.27;;
65863;SDS011;52639;51.180;20.460;2023-04-24T23:00:28;18.90;;;11.90;;
65863;SDS011;52639;51.180;20.460;2023-04-24T23:04:32;18.35;;;12.77;;
65863;SDS011;52639;51.180;20.460;2023-04-24T23:08:37;27.45;;;14.75;;
65863;SDS011;52639;51.180;20.460;2023-04-24T23:12:41;23.55;;;13.48;;
65863;SDS011;52639;51.180;20.460;2023-04-24T23:16:46;22.00;;;12.45;;
65863;SDS011;52639;51.180;20.460;2023-04-24T23:20:50;17.08;;;11.80;;
65863;SDS011;52639;51.180;20.460;2023-04-24T23:24:54;17.38;;;11.85;;
65863;SDS011;52639;51.180;20.460;2023-04-24T23:29:00;20.38;;;13.10;;
65863;SDS011;52639;51.180;20.460;2023-04-24T23:33:05;21.20;;;13.65;;
65863;SDS011;52639;51.180;20.460;2023-04-24T23:37:09;21.95;;;12.98;;
65863;SDS011;52639;51.180;20.460;2023-04-24T23:41:15;28.90;;;14.73;;
65863;SDS011;52639;51.180;20.460;2023-04-24T23:45:18;24.05;;;14.93;;
65863;SDS011;52639;51.180;20.460;2023-04-24T23:49:21;25.15;;;14.18;;
65863;SDS011;52639;51.180;20.460;2023-04-24T23:53:24;23.98;;;14.00;;
65863;SDS011;52639;51.180;20.460;2023-04-24T23:57:29;24.02;;;14.10;;
